Observations for BOSCOMBE DOWN, United Kingdom (EGDM)

EGDM 280518Z 06006KT 2000 BR OVC002 15/15 Q0998 AMB
EGDM 280450Z AUTO 06006KT 2400 -DZ OVC001/// 15/15 Q0998
EGDM 280350Z AUTO 05004KT 1700 DZ OVC002/// 15/15 Q0998 
EGDM 280250Z AUTO 05003KT 1300 DZ BKN002/// BKN034/// 15/15 Q0999   
EGDM 280150Z AUTO 07003KT 1600 DZ FEW002/// BKN033/// 15/15 Q0999   
EGDM 280050Z AUTO 07005KT 3200 RA FEW002/// BKN038/// 16/15 Q1000   
EGDM 272350Z AUTO 08004KT 2200 +RA BKN003/// SCT047/// 16/16 Q1001  
EGDM 272250Z AUTO 30003KT 2700 +RA BKN002/// SCT041/// 16/16 Q1001  
EGDM 272150Z AUTO 29002KT 3600 +RA FEW005/// BKN037/// 16/16 Q1002  
EGDM 272050Z AUTO 25002KT 4900 -RA BKN003/// SCT010/// 16/16 Q1002  
EGDM 271950Z AUTO 23002KT 4900 -RA SCT004/// BKN080/// 17/16 Q1002  
EGDM 271850Z AUTO 18001KT 6000 -RA FEW004/// BKN090/// 17/16 Q1003  
EGDM 271750Z AUTO 18002KT 6000 -RA BKN080/// 17/16 Q1003
EGDM 271650Z 19003KT 8000 -RA FEW006 SCT040 OVC070 18/16 Q1004 BLU  
EGDM 271550Z 17001KT 9000 RA FEW030 OVC070 18/15 Q1004 BLU TEMPO 7000 BKN020 WHT
EGDM 271450Z 16001KT 9999 -RA FEW031 OVC050 18/15 Q1005 BLU BECMG BKN020 WHT
EGDM 271350Z 23002KT 9999 -SHRA FEW018 OVC080 19/15 Q1005 BLU BECMG BKN018 WHT  
EGDM 271250Z 28005KT 9999 -SHRA SCT025 OVC080 19/14 Q1005 BLU BECMG BKN020 WHT  
EGDM 271150Z 21003KT 9999 -SHRA FEW036 OVC110 19/13 Q1006 BLU NOSIG 
EGDM 271050Z 13001KT 9999 FEW033 BKN036 OVC110 19/12 Q1006 BLU NOSIG
EGDM 270950Z 24002KT 9999 FEW032 BKN040 18/12 Q1007 BLU NOSIG   
EGDM 270850Z 13006KT 9999 BKN035 BKN070 BKN180 17/10 Q1007 BLU NOSIG
EGDM 270750Z 11007KT 9999 BKN036 16/09 Q1007 BLU NOSIG  
EGDM 270650Z 10007KT 9999 BKN045 15/08 Q1007 BLU NOSIG  
EGDM 270550Z 09005KT 9999 BKN045 BKN180 14/08 Q1008 BLU 
EGDM 270450Z AUTO 09006KT 9999 FEW035/// OVC045/// 13/08 Q1008